createdAt,value
2023-05-11T00:01:08.796Z,21.7
2023-05-11T00:02:52.505Z,21.7
2023-05-11T00:04:36.199Z,21.7
2023-05-11T00:06:19.913Z,21.6
2023-05-11T00:08:03.608Z,21.6
2023-05-11T00:09:47.327Z,21.6
2023-05-11T00:11:31.027Z,21.7
2023-05-11T00:13:14.727Z,21.7
2023-05-11T00:14:58.409Z,21.6
2023-05-11T00:16:42.113Z,21.6
2023-05-11T00:18:25.823Z,21.6
2023-05-11T00:20:09.522Z,21.6
2023-05-11T00:21:53.222Z,21.6
2023-05-11T00:23:36.930Z,21.6
2023-05-11T00:25:20.647Z,21.6
2023-05-11T00:27:04.336Z,21.6
2023-05-11T00:28:48.053Z,21.6
2023-05-11T00:30:31.741Z,21.6
2023-05-11T00:32:15.460Z,21.6
2023-05-11T00:33:59.145Z,21.6
2023-05-11T00:35:42.841Z,21.6
2023-05-11T00:37:26.564Z,21.6
2023-05-11T00:39:10.260Z,21.6
2023-05-11T00:40:53.952Z,21.6
2023-05-11T00:42:37.658Z,21.6
2023-05-11T00:44:21.386Z,21.6
2023-05-11T00:46:05.082Z,21.6
2023-05-11T00:47:48.762Z,21.6
2023-05-11T00:49:32.471Z,21.6
2023-05-11T00:51:16.167Z,21.6
2023-05-11T00:52:59.873Z,21.6
2023-05-11T00:54:43.587Z,21.5
2023-05-11T00:56:27.271Z,21.5
2023-05-11T00:58:10.981Z,21.5
2023-05-11T00:59:54.729Z,21.5
2023-05-11T01:01:38.378Z,21.5
2023-05-11T01:03:22.093Z,21.5
2023-05-11T01:05:05.780Z,21.5
2023-05-11T01:06:49.499Z,21.5
2023-05-11T01:08:33.184Z,21.5
2023-05-11T01:10:16.893Z,21.5
2023-05-11T01:12:00.604Z,21.5
2023-05-11T01:13:44.303Z,21.5
2023-05-11T01:15:27.987Z,21.5
2023-05-11T01:17:11.683Z,21.5
2023-05-11T01:18:55.401Z,21.5
2023-05-11T01:20:39.092Z,21.5
2023-05-11T01:22:22.787Z,21.5
2023-05-11T01:24:06.491Z,21.5
2023-05-11T01:25:50.193Z,21.5
2023-05-11T01:27:33.899Z,21.5
2023-05-11T01:29:17.608Z,21.5
2023-05-11T01:31:01.304Z,21.5
2023-05-11T01:32:44.998Z,21.5
2023-05-11T01:34:28.720Z,21.5
2023-05-11T01:36:12.406Z,21.5
2023-05-11T01:37:56.156Z,21.5
2023-05-11T01:39:39.826Z,21.5
2023-05-11T01:41:23.519Z,21.5
2023-05-11T01:43:07.207Z,21.5
2023-05-11T01:44:51.232Z,21.5
2023-05-11T01:46:34.613Z,21.5
2023-05-11T01:48:18.338Z,21.5
2023-05-11T01:50:02.028Z,21.5
2023-05-11T01:51:45.716Z,21.5
2023-05-11T01:53:29.427Z,21.4
2023-05-11T01:55:13.129Z,21.5
2023-05-11T01:56:56.818Z,21.4
2023-05-11T01:58:40.531Z,21.4
2023-05-11T02:00:24.235Z,21.4
2023-05-11T02:02:07.931Z,21.4
2023-05-11T02:03:51.628Z,21.4
2023-05-11T02:05:35.334Z,21.4
2023-05-11T02:07:19.042Z,21.4
2023-05-11T02:09:02.733Z,21.4
2023-05-11T02:10:46.420Z,21.4
2023-05-11T02:12:30.124Z,21.4
2023-05-11T02:14:13.842Z,21.4
2023-05-11T02:15:57.522Z,21.4
2023-05-11T02:17:41.223Z,21.4
2023-05-11T02:19:24.930Z,21.4
2023-05-11T02:21:08.632Z,21.4
2023-05-11T02:22:52.359Z,21.4
2023-05-11T02:24:36.033Z,21.4
2023-05-11T02:26:19.736Z,21.4
2023-05-11T02:28:03.433Z,21.4
2023-05-11T02:29:47.143Z,21.4
2023-05-11T02:31:30.824Z,21.4
2023-05-11T02:33:14.538Z,21.4
2023-05-11T02:34:58.241Z,21.4
2023-05-11T02:36:41.958Z,21.4
2023-05-11T02:38:25.666Z,21.3
2023-05-11T02:40:09.334Z,21.4
2023-05-11T02:41:53.032Z,21.4
2023-05-11T02:43:36.741Z,21.4
2023-05-11T02:45:20.428Z,21.4
2023-05-11T02:47:04.140Z,21.4
2023-05-11T02:48:47.849Z,21.4
2023-05-11T02:50:31.568Z,21.3
2023-05-11T02:52:15.253Z,21.3
2023-05-11T02:53:58.945Z,21.3
2023-05-11T02:55:42.649Z,21.3
2023-05-11T02:57:26.351Z,21.3
2023-05-11T02:59:10.065Z,21.3
2023-05-11T03:00:53.734Z,21.3
2023-05-11T03:02:37.446Z,21.3
2023-05-11T03:04:21.185Z,21.3
2023-05-11T03:06:04.843Z,21.3
2023-05-11T03:07:48.535Z,21.3
2023-05-11T03:09:32.251Z,21.3
2023-05-11T03:11:15.948Z,21.3
2023-05-11T03:12:59.650Z,21.3
2023-05-11T03:14:43.348Z,21.3
2023-05-11T03:16:27.055Z,21.3
2023-05-11T03:18:10.754Z,21.3
2023-05-11T03:19:54.450Z,21.3
2023-05-11T03:21:38.160Z,21.3
2023-05-11T03:23:21.866Z,21.3
2023-05-11T03:25:05.574Z,21.3
2023-05-11T03:26:49.263Z,21.3
2023-05-11T03:28:33.042Z,21.3
2023-05-11T03:30:16.665Z,21.3
2023-05-11T03:32:00.377Z,21.3
2023-05-11T03:33:44.052Z,21.3
2023-05-11T03:35:27.768Z,21.3
2023-05-11T03:37:11.479Z,21.3
2023-05-11T03:38:55.181Z,21.3
2023-05-11T03:40:38.866Z,21.3
2023-05-11T03:42:22.560Z,21.3
2023-05-11T03:44:06.290Z,21.2
2023-05-11T03:45:50.005Z,21.2
2023-05-11T03:47:33.689Z,21.2
2023-05-11T03:49:17.397Z,21.2
2023-05-11T03:51:01.091Z,21.2
2023-05-11T03:52:44.821Z,21.2
2023-05-11T03:54:28.500Z,21.3
2023-05-11T03:56:12.173Z,21.2
2023-05-11T03:57:55.888Z,21.2
2023-05-11T03:59:39.601Z,21.2
2023-05-11T04:01:23.282Z,21.2
2023-05-11T04:03:06.984Z,21.2
2023-05-11T04:04:50.676Z,21.2
2023-05-11T04:06:34.392Z,21.2
2023-05-11T04:08:18.086Z,21.2
2023-05-11T04:10:01.786Z,21.2
2023-05-11T04:11:45.495Z,21.2
2023-05-11T04:13:29.193Z,21.2
2023-05-11T04:15:12.891Z,21.2
2023-05-11T04:16:56.605Z,21.2
2023-05-11T04:18:40.307Z,21.2
2023-05-11T04:20:24.003Z,21.2
2023-05-11T04:22:07.724Z,21.2
2023-05-11T04:23:51.417Z,21.2
2023-05-11T04:25:35.135Z,21.2
2023-05-11T04:27:18.834Z,21.2
2023-05-11T04:29:02.532Z,21.2
2023-05-11T04:30:46.203Z,21.2
2023-05-11T04:32:29.924Z,21.2
2023-05-11T04:34:13.615Z,21.2
2023-05-11T04:35:57.332Z,21.2
2023-05-11T04:37:41.016Z,21.2
2023-05-11T04:39:24.714Z,21.2
2023-05-11T04:41:08.420Z,21.2
2023-05-11T04:42:52.125Z,21.2
2023-05-11T04:44:35.816Z,21.2
2023-05-11T04:46:19.512Z,21.2
2023-05-11T04:48:03.260Z,21.2
2023-05-11T04:49:46.935Z,21.2
2023-05-11T04:51:30.625Z,21.2
2023-05-11T04:53:14.355Z,21.2
2023-05-11T04:54:58.061Z,21.2
2023-05-11T04:56:41.734Z,21.2
2023-05-11T04:58:25.454Z,21.2
2023-05-11T05:00:09.136Z,21.2
2023-05-11T05:01:52.847Z,21.2
2023-05-11T05:03:36.556Z,21.2
2023-05-11T05:05:20.247Z,21.2
2023-05-11T05:07:03.949Z,21.2
2023-05-11T05:08:47.730Z,21.2
2023-05-11T05:10:31.377Z,21.2
2023-05-11T05:12:15.126Z,21.2
2023-05-11T05:15:42.458Z,21.2
2023-05-11T05:17:26.178Z,21.2
2023-05-11T05:19:09.866Z,21.2
2023-05-11T05:20:53.567Z,21.2
2023-05-11T05:22:37.284Z,21.2
2023-05-11T05:24:20.981Z,21.2
2023-05-11T05:26:04.673Z,21.2
2023-05-11T05:27:48.429Z,21.2
2023-05-11T05:29:32.063Z,21.2
2023-05-11T05:31:15.776Z,21.2
2023-05-11T05:32:59.467Z,21.2
2023-05-11T05:34:43.228Z,21.2
2023-05-11T05:36:26.879Z,21.2
2023-05-11T05:38:10.588Z,21.2
2023-05-11T05:39:54.297Z,21.2
2023-05-11T05:41:38.002Z,21.2
2023-05-11T05:43:21.684Z,21.2
2023-05-11T05:45:05.392Z,21.2
2023-05-11T05:46:49.096Z,21.2
2023-05-11T05:48:32.877Z,21.2
2023-05-11T05:50:16.495Z,21.2
2023-05-11T05:52:00.199Z,21.2
2023-05-11T05:53:43.904Z,21.2
2023-05-11T05:55:27.603Z,21.2
2023-05-11T05:57:11.308Z,21.2
2023-05-11T05:58:55.000Z,21.3
2023-05-11T06:00:38.744Z,21.3
2023-05-11T06:02:22.399Z,21.3
2023-05-11T06:04:06.090Z,21.4
2023-05-11T06:05:49.828Z,21.4
2023-05-11T06:07:33.520Z,21.5
2023-05-11T06:09:17.250Z,21.5
2023-05-11T06:11:00.915Z,21.5
2023-05-11T06:12:44.630Z,21.5
2023-05-11T06:14:28.327Z,21.6
2023-05-11T06:16:12.030Z,21.6
2023-05-11T06:17:55.739Z,21.6
2023-05-11T06:19:39.436Z,21.6
2023-05-11T06:21:23.143Z,21.6
2023-05-11T06:23:06.848Z,21.6
2023-05-11T06:24:50.554Z,21.6
2023-05-11T06:26:34.223Z,21.6
2023-05-11T06:28:17.941Z,21.7
2023-05-11T06:30:01.657Z,21.7
2023-05-11T06:31:45.345Z,21.7
2023-05-11T06:33:29.040Z,21.7
2023-05-11T06:35:12.741Z,21.7
2023-05-11T06:36:56.454Z,21.7
2023-05-11T06:38:40.155Z,21.7
2023-05-11T06:40:23.940Z,21.7
2023-05-11T06:42:07.669Z,21.7
2023-05-11T06:43:51.347Z,21.7
2023-05-11T06:45:34.971Z,21.7
2023-05-11T06:47:18.689Z,21.7
2023-05-11T06:49:02.365Z,21.7
2023-05-11T06:50:46.090Z,21.7
2023-05-11T06:52:29.794Z,21.7
2023-05-11T06:54:13.486Z,21.7
2023-05-11T06:55:57.188Z,21.7
2023-05-11T06:57:40.888Z,21.7
2023-05-11T06:59:24.592Z,21.7
2023-05-11T07:01:08.296Z,21.7
2023-05-11T07:02:52.006Z,21.7
2023-05-11T07:04:35.763Z,21.7
2023-05-11T07:06:19.403Z,21.7
2023-05-11T07:08:03.327Z,21.7
2023-05-11T07:09:46.995Z,21.7
2023-05-11T07:11:30.510Z,21.8
2023-05-11T07:13:14.208Z,21.8
2023-05-11T07:14:57.922Z,21.8
2023-05-11T07:16:41.624Z,21.8
2023-05-11T07:18:25.309Z,21.9
2023-05-11T07:20:09.016Z,21.9
2023-05-11T07:21:52.723Z,21.9
2023-05-11T07:23:36.434Z,21.9
2023-05-11T07:25:20.105Z,22
2023-05-11T07:27:03.821Z,22
2023-05-11T07:28:47.531Z,22
2023-05-11T07:30:31.227Z,22.1
2023-05-11T07:32:14.932Z,22.1
2023-05-11T07:33:58.631Z,22.1
2023-05-11T07:35:42.463Z,22.1
2023-05-11T07:37:26.038Z,22.2
2023-05-11T07:39:09.807Z,22.2
2023-05-11T07:40:53.581Z,22.2
2023-05-11T07:42:37.139Z,22.3
2023-05-11T07:44:20.837Z,22.3
2023-05-11T07:46:04.534Z,22.3
2023-05-11T07:47:48.246Z,22.4
2023-05-11T07:49:31.952Z,22.4
2023-05-11T07:51:15.651Z,22.4
2023-05-11T07:52:59.473Z,22.5
2023-05-11T07:54:43.192Z,22.5
2023-05-11T07:56:26.868Z,22.5
2023-05-11T07:58:10.646Z,22.5
2023-05-11T07:59:54.165Z,22.6
2023-05-11T08:01:37.875Z,22.6
2023-05-11T08:03:21.776Z,22.6
2023-05-11T08:05:05.266Z,22.6
2023-05-11T08:06:49.042Z,22.7
2023-05-11T08:08:32.687Z,22.7
2023-05-11T08:10:16.385Z,22.7
2023-05-11T08:12:00.090Z,22.8
2023-05-11T08:13:43.783Z,22.8
2023-05-11T08:15:27.634Z,22.8
2023-05-11T08:17:11.275Z,22.8
2023-05-11T08:18:54.896Z,22.8
2023-05-11T08:20:38.615Z,22.8
2023-05-11T08:22:22.294Z,22.8
2023-05-11T08:24:05.992Z,22.8
2023-05-11T08:25:49.700Z,22.8
2023-05-11T08:27:33.394Z,22.8
2023-05-11T08:29:17.085Z,22.8
2023-05-11T08:31:00.799Z,22.8
2023-05-11T08:32:44.511Z,22.7
2023-05-11T08:34:28.205Z,22.7
2023-05-11T08:36:11.894Z,22.7
2023-05-11T08:37:55.620Z,22.7
2023-05-11T08:39:39.314Z,22.8
2023-05-11T08:41:23.005Z,22.8
2023-05-11T08:43:06.692Z,22.8
2023-05-11T08:44:50.398Z,22.9
2023-05-11T08:46:34.105Z,22.9
2023-05-11T08:48:17.792Z,22.9
2023-05-11T08:50:01.514Z,22.9
2023-05-11T08:51:45.201Z,22.9
2023-05-11T08:53:28.910Z,23
2023-05-11T08:55:12.592Z,23
2023-05-11T08:56:56.308Z,23
2023-05-11T08:58:40.005Z,23
2023-05-11T09:00:23.713Z,23.1
2023-05-11T09:02:07.417Z,23.1
2023-05-11T09:03:51.114Z,23.1
2023-05-11T09:05:34.810Z,23.1
2023-05-11T09:07:18.518Z,23.1
2023-05-11T09:09:02.205Z,23.1
2023-05-11T09:10:45.903Z,23.2
2023-05-11T09:12:29.633Z,23.2
2023-05-11T09:14:13.327Z,23.2
2023-05-11T09:15:57.018Z,23.3
2023-05-11T09:17:40.723Z,23.3
2023-05-11T09:19:24.431Z,23.3
2023-05-11T09:21:08.149Z,23.4
2023-05-11T09:22:51.845Z,23.3
2023-05-11T09:24:35.540Z,23.3
2023-05-11T09:26:19.223Z,23.3
2023-05-11T09:28:02.944Z,23.3
2023-05-11T09:29:46.646Z,23.2
2023-05-11T09:31:30.463Z,23.2
2023-05-11T09:33:14.175Z,23.2
2023-05-11T09:34:57.797Z,23.2
2023-05-11T09:36:41.549Z,23.2
2023-05-11T09:38:25.148Z,23.3
2023-05-11T09:40:08.856Z,23.3
2023-05-11T09:41:52.543Z,23.4
2023-05-11T09:43:36.244Z,23.4
2023-05-11T09:45:19.938Z,23.3
2023-05-11T09:47:03.656Z,23.3
2023-05-11T09:48:47.342Z,23.3
2023-05-11T09:50:31.060Z,23.2
2023-05-11T09:52:14.730Z,23.2
2023-05-11T09:53:58.442Z,23.2
2023-05-11T09:55:42.157Z,23.2
2023-05-11T09:57:25.846Z,23.2
2023-05-11T09:59:09.542Z,23.2
2023-05-11T10:00:53.245Z,23.2
2023-05-11T10:02:36.958Z,23.1
2023-05-11T10:04:20.658Z,23.1
2023-05-11T10:06:04.355Z,23.1
2023-05-11T10:07:48.043Z,23
2023-05-11T10:09:31.740Z,23
2023-05-11T10:11:15.453Z,23
2023-05-11T10:12:59.134Z,23
2023-05-11T10:14:42.930Z,23
2023-05-11T10:16:26.683Z,23
2023-05-11T10:18:10.241Z,23
2023-05-11T10:19:53.957Z,23
2023-05-11T10:21:37.641Z,23
2023-05-11T10:25:05.066Z,23
2023-05-11T10:26:48.766Z,22.9
2023-05-11T10:28:32.453Z,22.9
2023-05-11T10:30:16.159Z,22.9
2023-05-11T10:31:59.859Z,23
2023-05-11T10:33:43.566Z,23
2023-05-11T10:35:27.271Z,23.1
2023-05-11T10:37:10.976Z,23.2
2023-05-11T10:38:54.652Z,23.3
2023-05-11T10:40:38.372Z,23.3
2023-05-11T10:42:22.080Z,23.4
2023-05-11T10:44:05.765Z,23.4
2023-05-11T10:45:49.483Z,23.5
2023-05-11T10:47:33.178Z,23.5
2023-05-11T10:49:16.887Z,23.5
2023-05-11T10:51:00.593Z,23.5
2023-05-11T10:52:44.284Z,23.6
2023-05-11T10:54:27.998Z,23.6
2023-05-11T10:56:11.681Z,23.6
2023-05-11T10:57:55.588Z,23.6
2023-05-11T11:03:06.506Z,23.6
2023-05-11T11:04:50.223Z,23.6
2023-05-11T11:06:33.927Z,23.6
2023-05-11T11:08:17.648Z,23.6
2023-05-11T11:10:01.313Z,23.6
2023-05-11T11:11:45.217Z,23.6
2023-05-11T11:13:28.792Z,23.7
2023-05-11T11:15:12.435Z,23.7
2023-05-11T11:16:56.370Z,23.7
2023-05-11T11:18:39.840Z,23.7
2023-05-11T11:20:23.538Z,23.7
2023-05-11T11:22:07.234Z,23.6
2023-05-11T11:23:50.938Z,23.6
2023-05-11T11:25:34.649Z,23.6
2023-05-11T11:27:18.364Z,23.5
2023-05-11T11:29:02.091Z,23.5
2023-05-11T11:30:45.748Z,23.5
2023-05-11T11:32:29.462Z,23.5
2023-05-11T11:34:13.160Z,23.6
2023-05-11T11:35:56.856Z,23.6
2023-05-11T11:37:40.563Z,23.7
2023-05-11T11:39:24.259Z,23.7
2023-05-11T11:41:08.000Z,23.8
2023-05-11T11:42:51.696Z,23.8
2023-05-11T11:44:35.371Z,23.8
2023-05-11T11:46:19.074Z,23.9
2023-05-11T11:48:02.781Z,23.9
2023-05-11T11:49:46.474Z,23.9
2023-05-11T11:51:30.177Z,23.9
2023-05-11T11:53:13.897Z,24
2023-05-11T11:54:57.578Z,24
2023-05-11T11:56:41.288Z,24
2023-05-11T11:58:25.013Z,24
2023-05-11T12:00:08.689Z,24.1
2023-05-11T12:01:52.403Z,24.1
2023-05-11T12:03:36.113Z,24.2
2023-05-11T12:05:19.800Z,24.2
2023-05-11T12:07:03.508Z,24.2
2023-05-11T12:08:47.216Z,24.2
2023-05-11T12:10:30.918Z,24.2
2023-05-11T12:12:14.630Z,24.3
2023-05-11T12:13:58.379Z,24.3
2023-05-11T12:15:42.020Z,24.4
2023-05-11T12:17:25.731Z,24.4
2023-05-11T12:19:09.474Z,24.5
2023-05-11T12:20:53.139Z,24.5
2023-05-11T12:22:36.838Z,24.5
2023-05-11T12:24:20.549Z,24.5
2023-05-11T12:26:04.390Z,24.4
2023-05-11T12:27:48.124Z,24.4
2023-05-11T12:29:31.793Z,24.5
2023-05-11T12:31:15.351Z,24.5
2023-05-11T12:32:59.065Z,24.5
2023-05-11T12:34:42.856Z,24.6
2023-05-11T12:36:26.525Z,24.5
2023-05-11T12:38:10.160Z,24.5
2023-05-11T12:39:53.869Z,24.4
2023-05-11T12:41:37.579Z,24.3
2023-05-11T12:43:21.277Z,24.3
2023-05-11T12:45:04.979Z,24.3
2023-05-11T12:46:48.677Z,24.4
2023-05-11T12:48:32.400Z,24.4
2023-05-11T12:50:16.080Z,24.4
2023-05-11T12:51:59.774Z,24.5
2023-05-11T12:53:43.497Z,24.6
2023-05-11T12:55:27.216Z,24.6
2023-05-11T12:57:10.885Z,24.7
2023-05-11T12:58:54.595Z,24.7
2023-05-11T13:00:38.292Z,24.8
2023-05-11T13:02:22.016Z,24.8
2023-05-11T13:04:05.683Z,24.8
2023-05-11T13:05:49.404Z,24.8
2023-05-11T13:07:33.122Z,24.8
2023-05-11T13:09:16.824Z,24.9
2023-05-11T13:11:00.637Z,24.9
2023-05-11T13:12:44.219Z,24.9
2023-05-11T13:14:27.924Z,24.8
2023-05-11T13:16:11.620Z,24.8
2023-05-11T13:17:55.330Z,24.8
2023-05-11T13:19:39.024Z,24.8
2023-05-11T13:21:22.745Z,24.8
2023-05-11T13:23:06.430Z,24.8
2023-05-11T13:24:50.132Z,24.8
2023-05-11T13:26:33.829Z,24.7
2023-05-11T13:28:17.551Z,24.7
2023-05-11T13:30:01.338Z,24.7
2023-05-11T13:33:28.650Z,24.8
2023-05-11T13:35:12.347Z,24.9
2023-05-11T13:36:56.057Z,24.9
2023-05-11T13:38:39.785Z,24.9
2023-05-11T13:40:23.491Z,24.9
2023-05-11T13:42:07.321Z,24.9
2023-05-11T13:43:50.871Z,25
2023-05-11T13:45:34.590Z,25
2023-05-11T13:47:18.307Z,25
2023-05-11T13:49:01.989Z,24.9
2023-05-11T13:50:45.687Z,24.9
2023-05-11T13:52:29.388Z,24.9
2023-05-11T13:54:13.090Z,24.9
2023-05-11T13:55:56.866Z,24.9
2023-05-11T13:57:40.491Z,24.8
2023-05-11T13:59:24.208Z,24.8
2023-05-11T14:01:07.904Z,24.7
2023-05-11T14:02:51.627Z,24.7
2023-05-11T14:04:35.295Z,24.7
2023-05-11T14:06:18.997Z,24.8
2023-05-11T14:08:02.697Z,24.8
2023-05-11T14:09:46.451Z,24.8
2023-05-11T14:11:30.120Z,24.8
2023-05-11T14:13:13.812Z,24.8
2023-05-11T14:14:57.513Z,24.8
2023-05-11T14:16:41.229Z,24.8
2023-05-11T14:18:24.941Z,24.8
2023-05-11T14:20:08.638Z,24.8
2023-05-11T14:21:52.352Z,24.8
2023-05-11T14:23:36.053Z,24.8
2023-05-11T14:25:19.779Z,24.7
2023-05-11T14:27:03.459Z,24.7
2023-05-11T14:28:47.147Z,24.7
2023-05-11T14:30:30.864Z,24.6
2023-05-11T14:32:14.585Z,24.6
2023-05-11T14:33:58.281Z,24.6
2023-05-11T14:35:41.959Z,24.6
2023-05-11T14:37:25.693Z,24.6
2023-05-11T14:39:09.348Z,24.6
2023-05-11T14:40:53.064Z,24.6
2023-05-11T14:42:36.770Z,24.6
2023-05-11T14:44:24.194Z,24.6
2023-05-11T14:46:04.183Z,24.6
2023-05-11T14:47:47.878Z,24.6
2023-05-11T14:49:31.576Z,24.6
2023-05-11T14:51:15.282Z,24.6
2023-05-11T14:52:58.986Z,24.6
2023-05-11T14:54:42.673Z,24.6
2023-05-11T14:56:26.374Z,24.5
2023-05-11T14:58:10.185Z,24.5
2023-05-11T14:59:53.772Z,24.5
2023-05-11T15:01:37.521Z,24.4
2023-05-11T15:03:21.179Z,24.4
2023-05-11T15:05:04.915Z,24.4
2023-05-11T15:06:48.569Z,24.3
2023-05-11T15:08:32.419Z,24.3
2023-05-11T15:10:16.011Z,24.2
2023-05-11T15:11:59.687Z,24.2
2023-05-11T15:13:43.399Z,24.2
2023-05-11T15:15:27.097Z,24.1
2023-05-11T15:17:10.920Z,24.1
2023-05-11T15:18:54.490Z,24.1
2023-05-11T15:20:38.205Z,24
2023-05-11T15:22:21.942Z,24
2023-05-11T15:24:05.632Z,23.9
2023-05-11T15:25:49.358Z,23.9
2023-05-11T15:27:33.121Z,23.8
2023-05-11T15:29:16.716Z,23.7
2023-05-11T15:31:00.469Z,23.7
2023-05-11T15:32:44.127Z,23.6
2023-05-11T15:34:27.838Z,23.6
2023-05-11T15:36:11.533Z,23.5
2023-05-11T15:37:55.245Z,23.5
2023-05-11T15:39:38.988Z,23.5
2023-05-11T15:41:22.620Z,23.5
2023-05-11T15:43:06.319Z,23.5
2023-05-11T15:44:50.021Z,23.5
2023-05-11T15:46:33.724Z,23.5
2023-05-11T15:48:17.426Z,23.5
2023-05-11T15:50:01.126Z,23.5
2023-05-11T15:51:44.836Z,23.5
2023-05-11T15:53:28.529Z,23.4
2023-05-11T15:55:12.233Z,23.4
2023-05-11T15:56:56.026Z,23.4
2023-05-11T15:58:39.660Z,23.4
2023-05-11T16:00:23.362Z,23.3
2023-05-11T16:02:07.028Z,23.3
2023-05-11T16:03:50.708Z,23.3
2023-05-11T16:05:34.467Z,23.3
2023-05-11T16:07:18.119Z,23.3
2023-05-11T16:09:01.814Z,23.2
2023-05-11T16:10:45.576Z,23.2
2023-05-11T16:12:29.204Z,23.2
2023-05-11T16:14:12.921Z,23.1
2023-05-11T16:15:56.726Z,23.1
2023-05-11T16:17:40.331Z,23.1
2023-05-11T16:19:24.013Z,23
2023-05-11T16:21:07.729Z,23
2023-05-11T16:22:51.426Z,23
2023-05-11T16:24:35.149Z,23
2023-05-11T16:26:18.825Z,22.9
2023-05-11T16:28:02.540Z,22.9
2023-05-11T16:29:46.221Z,22.9
2023-05-11T16:31:29.908Z,22.9
2023-05-11T16:33:13.624Z,22.8
2023-05-11T16:34:57.367Z,22.8
2023-05-11T16:36:41.060Z,22.8
2023-05-11T16:38:24.711Z,22.8
2023-05-11T16:40:08.429Z,22.7
2023-05-11T16:41:52.158Z,22.7
2023-05-11T16:43:35.862Z,22.7
2023-05-11T16:45:19.542Z,22.6
2023-05-11T16:47:03.251Z,22.6
2023-05-11T16:48:46.993Z,22.6
2023-05-11T16:50:30.653Z,22.6
2023-05-11T16:52:14.366Z,22.6
2023-05-11T16:53:58.053Z,22.6
2023-05-11T16:55:41.770Z,22.5
2023-05-11T16:57:25.467Z,22.5
2023-05-11T22:05:05.081Z,21.1
2023-05-11T22:06:48.799Z,21.1
2023-05-11T22:08:31.841Z,21.1
2023-05-11T22:10:15.465Z,21.1
2023-05-11T22:11:59.215Z,21.1
2023-05-11T22:13:42.893Z,21.1
2023-05-11T22:15:26.587Z,21.1
2023-05-11T22:17:10.352Z,21.1
2023-05-11T22:20:37.693Z,21.1
2023-05-11T22:22:21.405Z,21.1
2023-05-11T22:24:05.085Z,21.1
2023-05-11T22:25:48.850Z,21.1
2023-05-11T22:27:32.512Z,21.1
2023-05-11T22:29:16.199Z,21.1
2023-05-11T22:30:59.897Z,21.1
2023-05-11T22:32:43.602Z,21.1
2023-05-11T22:34:27.300Z,21.1
2023-05-11T22:36:10.998Z,21.1
2023-05-11T22:37:54.700Z,21.1
2023-05-11T22:39:38.398Z,21.1
2023-05-11T22:41:22.089Z,21.1
2023-05-11T22:43:05.802Z,21.1
2023-05-11T22:44:49.491Z,21.1
2023-05-11T22:46:33.208Z,21.1
2023-05-11T22:48:16.898Z,21.1
2023-05-11T22:50:00.610Z,21.1
2023-05-11T22:51:44.313Z,21.1
2023-05-11T22:53:28.027Z,21.1
2023-05-11T22:55:11.723Z,21.1
2023-05-11T22:56:55.432Z,21.1
2023-05-11T22:58:39.177Z,21.1
2023-05-11T23:00:22.863Z,21.1
2023-05-11T23:02:06.575Z,21.1
2023-05-11T23:03:50.292Z,21.1
2023-05-11T23:05:33.975Z,21.1
2023-05-11T23:07:17.678Z,21.1
2023-05-11T23:09:01.368Z,21.1
2023-05-11T23:10:45.118Z,21.1
2023-05-11T23:12:28.873Z,21.1
2023-05-11T23:14:12.481Z,21.1
2023-05-11T23:15:56.160Z,21.1
2023-05-11T23:17:39.898Z,21.1
2023-05-11T23:19:23.579Z,21.1
2023-05-11T23:21:07.248Z,21.1
2023-05-11T23:22:50.942Z,21.1
2023-05-11T23:24:34.699Z,21.1
2023-05-11T23:26:18.350Z,21
2023-05-11T23:28:02.080Z,21.1
2023-05-11T23:29:45.766Z,21.1
2023-05-11T23:31:29.464Z,21.1
2023-05-11T23:33:13.178Z,21
2023-05-11T23:34:56.905Z,21
2023-05-11T23:36:40.570Z,21
2023-05-11T23:38:24.273Z,21
2023-05-11T23:40:07.990Z,21
2023-05-11T23:41:51.678Z,21
2023-05-11T23:43:35.387Z,21
2023-05-11T23:45:19.096Z,21
2023-05-11T23:47:02.790Z,21
2023-05-11T23:48:46.504Z,21
2023-05-11T23:50:30.213Z,21
2023-05-11T23:52:13.906Z,21
2023-05-11T23:53:57.636Z,21
2023-05-11T23:55:41.328Z,21
2023-05-11T23:57:25.011Z,21
2023-05-11T23:59:08.713Z,21
